sensor_id;sensor_type;location;lat;lon;timestamp;pressure;altitude;pressure_sealevel;temperature;humidity
43257;BME280;28860;43.212;27.934;2023-02-19T00:01:09;101094.31;;;18.07;34.90
43257;BME280;28860;43.212;27.934;2023-02-19T00:03:35;101092.28;;;18.20;34.84
43257;BME280;28860;43.212;27.934;2023-02-19T00:06:05;101101.16;;;18.22;34.42
43257;BME280;28860;43.212;27.934;2023-02-19T00:08:31;101091.66;;;18.17;34.73
43257;BME280;28860;43.212;27.934;2023-02-19T00:11:05;101075.59;;;18.04;34.85
43257;BME280;28860;43.212;27.934;2023-02-19T00:13:35;101080.75;;;18.07;35.00
43257;BME280;28860;43.212;27.934;2023-02-19T00:16:09;101082.69;;;17.62;35.57
43257;BME280;28860;43.212;27.934;2023-02-19T00:18:35;101066.03;;;17.88;35.17
43257;BME280;28860;43.212;27.934;2023-02-19T00:21:01;101066.50;;;17.93;34.97
43257;BME280;28860;43.212;27.934;2023-02-19T00:23:27;101070.78;;;18.07;34.90
43257;BME280;28860;43.212;27.934;2023-02-19T00:25:53;101032.66;;;17.97;34.71
43257;BME280;28860;43.212;27.934;2023-02-19T00:28:19;101073.63;;;18.06;34.61
43257;BME280;28860;43.212;27.934;2023-02-19T00:30:45;101051.19;;;18.04;34.50
43257;BME280;28860;43.212;27.934;2023-02-19T00:33:11;101052.28;;;18.22;34.50
43257;BME280;28860;43.212;27.934;2023-02-19T00:35:39;101039.19;;;17.85;34.66
43257;BME280;28860;43.212;27.934;2023-02-19T00:38:04;101044.69;;;18.16;34.49
43257;BME280;28860;43.212;27.934;2023-02-19T00:40:30;101043.13;;;18.23;34.35
43257;BME280;28860;43.212;27.934;2023-02-19T00:42:55;101033.16;;;18.24;34.30
43257;BME280;28860;43.212;27.934;2023-02-19T00:45:22;101031.84;;;18.18;34.50
43257;BME280;28860;43.212;27.934;2023-02-19T00:47:47;101033.94;;;17.93;34.61
43257;BME280;28860;43.212;27.934;2023-02-19T00:50:13;101033.34;;;18.11;34.32
43257;BME280;28860;43.212;27.934;2023-02-19T00:52:38;101018.63;;;18.04;34.66
43257;BME280;28860;43.212;27.934;2023-02-19T00:55:04;101001.06;;;18.08;34.47
43257;BME280;28860;43.212;27.934;2023-02-19T00:57:32;101007.47;;;18.07;34.36
43257;BME280;28860;43.212;27.934;2023-02-19T00:59:58;101009.41;;;18.16;34.50
43257;BME280;28860;43.212;27.934;2023-02-19T01:02:26;101001.06;;;18.08;34.26
43257;BME280;28860;43.212;27.934;2023-02-19T01:04:51;100998.66;;;17.93;34.55
43257;BME280;28860;43.212;27.934;2023-02-19T01:07:17;100995.78;;;17.85;34.51
43257;BME280;28860;43.212;27.934;2023-02-19T01:09:43;100990.47;;;18.05;34.47
43257;BME280;28860;43.212;27.934;2023-02-19T01:12:11;100980.06;;;18.10;34.18
43257;BME280;28860;43.212;27.934;2023-02-19T01:14:36;100992.31;;;18.04;34.29
43257;BME280;28860;43.212;27.934;2023-02-19T01:17:03;100988.09;;;17.90;34.51
43257;BME280;28860;43.212;27.934;2023-02-19T01:19:28;100985.66;;;18.08;34.25
43257;BME280;28860;43.212;27.934;2023-02-19T01:21:54;100979.78;;;18.13;34.08
43257;BME280;28860;43.212;27.934;2023-02-19T01:24:19;100989.41;;;18.17;34.10
43257;BME280;28860;43.212;27.934;2023-02-19T01:26:47;100961.63;;;18.04;34.10
43257;BME280;28860;43.212;27.934;2023-02-19T01:29:13;100973.13;;;18.17;34.25
43257;BME280;28860;43.212;27.934;2023-02-19T01:31:39;100959.97;;;18.22;33.83
43257;BME280;28860;43.212;27.934;2023-02-19T01:34:09;100965.38;;;18.13;34.37
43257;BME280;28860;43.212;27.934;2023-02-19T01:36:35;100969.47;;;18.07;34.20
43257;BME280;28860;43.212;27.934;2023-02-19T01:39:03;100970.75;;;18.03;34.17
43257;BME280;28860;43.212;27.934;2023-02-19T01:41:30;100966.19;;;18.03;34.22
43257;BME280;28860;43.212;27.934;2023-02-19T01:46:43;100943.63;;;18.03;34.30
43257;BME280;28860;43.212;27.934;2023-02-19T01:49:17;100939.06;;;18.13;34.08
43257;BME280;28860;43.212;27.934;2023-02-19T01:51:47;100937.09;;;17.84;34.63
43257;BME280;28860;43.212;27.934;2023-02-19T01:54:16;100941.63;;;18.05;34.40
43257;BME280;28860;43.212;27.934;2023-02-19T01:56:44;100942.06;;;18.10;34.32
43257;BME280;28860;43.212;27.934;2023-02-19T01:59:12;100942.69;;;17.92;34.51
43257;BME280;28860;43.212;27.934;2023-02-19T02:01:38;100941.22;;;18.09;34.42
43257;BME280;28860;43.212;27.934;2023-02-19T02:04:05;100938.97;;;17.93;34.62
43257;BME280;28860;43.212;27.934;2023-02-19T02:06:53;100929.09;;;17.61;35.07
43257;BME280;28860;43.212;27.934;2023-02-19T02:09:21;100928.94;;;17.84;34.80
43257;BME280;28860;43.212;27.934;2023-02-19T02:12:06;100926.13;;;17.95;34.39
43257;BME280;28860;43.212;27.934;2023-02-19T02:14:36;100925.34;;;18.05;34.34
43257;BME280;28860;43.212;27.934;2023-02-19T02:17:25;100936.19;;;18.05;34.35
43257;BME280;28860;43.212;27.934;2023-02-19T02:22:54;100937.25;;;17.92;34.26
43257;BME280;28860;43.212;27.934;2023-02-19T02:25:27;100920.94;;;17.61;34.84
43257;BME280;28860;43.212;27.934;2023-02-19T02:28:20;100933.22;;;18.08;34.24
43257;BME280;28860;43.212;27.934;2023-02-19T02:30:58;100944.63;;;17.80;34.91
43257;BME280;28860;43.212;27.934;2023-02-19T02:33:41;100940.31;;;17.78;34.97
43257;BME280;28860;43.212;27.934;2023-02-19T02:36:18;100945.06;;;17.86;34.82
43257;BME280;28860;43.212;27.934;2023-02-19T02:38:49;100932.13;;;17.99;34.43
43257;BME280;28860;43.212;27.934;2023-02-19T02:41:19;100923.88;;;18.01;34.43
43257;BME280;28860;43.212;27.934;2023-02-19T02:43:45;100918.91;;;18.06;34.39
43257;BME280;28860;43.212;27.934;2023-02-19T02:46:19;100933.72;;;18.02;34.43
43257;BME280;28860;43.212;27.934;2023-02-19T02:48:50;100935.13;;;18.17;34.05
43257;BME280;28860;43.212;27.934;2023-02-19T02:51:30;100942.16;;;18.30;33.94
43257;BME280;28860;43.212;27.934;2023-02-19T02:53:57;100930.28;;;18.21;33.92
43257;BME280;28860;43.212;27.934;2023-02-19T02:56:45;100934.00;;;18.30;33.88
43257;BME280;28860;43.212;27.934;2023-02-19T02:59:14;100939.00;;;18.34;33.96
43257;BME280;28860;43.212;27.934;2023-02-19T03:01:51;100938.88;;;18.36;33.69
43257;BME280;28860;43.212;27.934;2023-02-19T03:07:07;100945.75;;;18.40;33.69
43257;BME280;28860;43.212;27.934;2023-02-19T03:09:36;100932.00;;;18.32;33.78
43257;BME280;28860;43.212;27.934;2023-02-19T03:12:06;100942.31;;;18.38;33.75
43257;BME280;28860;43.212;27.934;2023-02-19T03:14:55;100949.19;;;18.42;33.69
43257;BME280;28860;43.212;27.934;2023-02-19T03:17:42;100943.22;;;18.48;33.50
43257;BME280;28860;43.212;27.934;2023-02-19T03:20:28;100948.63;;;18.48;33.51
43257;BME280;28860;43.212;27.934;2023-02-19T03:22:55;100942.91;;;18.42;33.61
43257;BME280;28860;43.212;27.934;2023-02-19T03:25:34;100925.34;;;18.05;34.30
43257;BME280;28860;43.212;27.934;2023-02-19T03:28:23;100943.97;;;18.19;33.88
43257;BME280;28860;43.212;27.934;2023-02-19T03:31:11;100945.97;;;18.17;33.84
43257;BME280;28860;43.212;27.934;2023-02-19T03:33:39;100938.84;;;18.26;33.71
43257;BME280;28860;43.212;27.934;2023-02-19T03:36:07;100935.25;;;17.94;33.95
43257;BME280;28860;43.212;27.934;2023-02-19T03:50:17;100954.59;;;17.80;34.47
43257;BME280;28860;43.212;27.934;2023-02-19T03:52:54;100958.41;;;17.99;34.21
43257;BME280;28860;43.212;27.934;2023-02-19T03:55:31;100950.50;;;18.07;33.87
43257;BME280;28860;43.212;27.934;2023-02-19T03:58:16;100954.31;;;18.04;34.02
43257;BME280;28860;43.212;27.934;2023-02-19T04:00:57;100951.25;;;17.97;33.85
43257;BME280;28860;43.212;27.934;2023-02-19T04:06:19;100965.13;;;17.52;34.63
43257;BME280;28860;43.212;27.934;2023-02-19T04:08:48;100981.34;;;17.63;34.50
43257;BME280;28860;43.212;27.934;2023-02-19T04:11:17;100976.91;;;17.62;34.41
43257;BME280;28860;43.212;27.934;2023-02-19T04:13:55;100998.31;;;17.44;34.78
43257;BME280;28860;43.212;27.934;2023-02-19T04:16:27;100999.88;;;17.58;34.48
43257;BME280;28860;43.212;27.934;2023-02-19T04:18:56;100989.94;;;17.68;34.37
43257;BME280;28860;43.212;27.934;2023-02-19T04:21:24;101000.59;;;17.60;34.21
43257;BME280;28860;43.212;27.934;2023-02-19T04:23:50;101005.41;;;17.78;34.18
43257;BME280;28860;43.212;27.934;2023-02-19T04:26:19;100989.47;;;17.85;33.94
43257;BME280;28860;43.212;27.934;2023-02-19T04:28:46;100988.63;;;17.84;33.69
43257;BME280;28860;43.212;27.934;2023-02-19T04:31:12;101001.88;;;17.56;33.93
43257;BME280;28860;43.212;27.934;2023-02-19T04:33:38;100987.16;;;17.80;33.39
43257;BME280;28860;43.212;27.934;2023-02-19T04:36:04;100986.63;;;17.86;33.37
43257;BME280;28860;43.212;27.934;2023-02-19T04:38:29;100966.78;;;17.64;33.13
43257;BME280;28860;43.212;27.934;2023-02-19T04:40:55;100967.50;;;17.45;33.58
43257;BME280;28860;43.212;27.934;2023-02-19T04:43:21;100969.88;;;17.81;32.88
43257;BME280;28860;43.212;27.934;2023-02-19T04:45:46;100972.13;;;17.97;32.71
43257;BME280;28860;43.212;27.934;2023-02-19T04:48:12;100981.56;;;17.72;32.94
43257;BME280;28860;43.212;27.934;2023-02-19T04:50:39;100986.47;;;17.24;33.40
43257;BME280;28860;43.212;27.934;2023-02-19T04:53:05;101002.38;;;17.50;33.01
43257;BME280;28860;43.212;27.934;2023-02-19T04:55:31;100988.84;;;17.38;32.87
43257;BME280;28860;43.212;27.934;2023-02-19T04:57:57;100996.22;;;17.15;33.16
43257;BME280;28860;43.212;27.934;2023-02-19T05:00:22;101006.78;;;17.51;32.52
43257;BME280;28860;43.212;27.934;2023-02-19T05:02:48;101013.22;;;17.50;32.36
43257;BME280;28860;43.212;27.934;2023-02-19T05:05:13;101023.41;;;17.79;32.04
43257;BME280;28860;43.212;27.934;2023-02-19T05:07:39;101025.63;;;17.31;32.33
43257;BME280;28860;43.212;27.934;2023-02-19T05:10:05;101017.19;;;17.46;32.02
43257;BME280;28860;43.212;27.934;2023-02-19T05:12:30;101020.53;;;17.71;31.56
43257;BME280;28860;43.212;27.934;2023-02-19T05:14:56;101022.69;;;17.56;31.88
43257;BME280;28860;43.212;27.934;2023-02-19T05:17:22;101014.00;;;17.40;31.88
43257;BME280;28860;43.212;27.934;2023-02-19T05:19:47;101037.22;;;17.22;32.15
43257;BME280;28860;43.212;27.934;2023-02-19T05:22:13;101038.50;;;17.06;32.56
43257;BME280;28860;43.212;27.934;2023-02-19T05:24:38;101051.47;;;17.35;32.04
43257;BME280;28860;43.212;27.934;2023-02-19T05:27:04;101060.09;;;17.40;31.85
43257;BME280;28860;43.212;27.934;2023-02-19T05:29:30;101059.81;;;17.55;31.74
43257;BME280;28860;43.212;27.934;2023-02-19T05:31:56;101071.69;;;17.43;31.89
43257;BME280;28860;43.212;27.934;2023-02-19T05:34:21;101067.34;;;17.73;31.22
43257;BME280;28860;43.212;27.934;2023-02-19T05:36:47;101068.66;;;17.57;31.35
43257;BME280;28860;43.212;27.934;2023-02-19T05:39:12;101084.53;;;17.29;31.86
43257;BME280;28860;43.212;27.934;2023-02-19T05:41:38;101097.81;;;17.32;31.88
43257;BME280;28860;43.212;27.934;2023-02-19T05:44:11;101099.81;;;17.30;31.96
43257;BME280;28860;43.212;27.934;2023-02-19T05:46:37;101096.53;;;17.80;31.12
43257;BME280;28860;43.212;27.934;2023-02-19T05:49:05;101115.91;;;18.08;30.86
43257;BME280;28860;43.212;27.934;2023-02-19T05:51:30;101123.22;;;17.96;30.70
43257;BME280;28860;43.212;27.934;2023-02-19T05:53:56;101123.22;;;17.96;30.97
43257;BME280;28860;43.212;27.934;2023-02-19T05:58:51;101132.28;;;18.18;30.53
43257;BME280;28860;43.212;27.934;2023-02-19T06:01:19;101144.97;;;18.39;30.31
43257;BME280;28860;43.212;27.934;2023-02-19T06:03:45;101132.72;;;18.45;30.26
43257;BME280;28860;43.212;27.934;2023-02-19T06:06:16;101138.44;;;18.20;30.43
43257;BME280;28860;43.212;27.934;2023-02-19T06:08:42;101143.72;;;17.89;31.19
43257;BME280;28860;43.212;27.934;2023-02-19T06:11:07;101145.63;;;18.10;30.75
43257;BME280;28860;43.212;27.934;2023-02-19T06:13:33;101131.81;;;17.80;31.00
43257;BME280;28860;43.212;27.934;2023-02-19T06:15:59;101141.47;;;18.06;30.96
43257;BME280;28860;43.212;27.934;2023-02-19T06:18:24;101155.03;;;18.27;30.45
43257;BME280;28860;43.212;27.934;2023-02-19T06:20:50;101147.22;;;18.34;30.40
43257;BME280;28860;43.212;27.934;2023-02-19T06:23:15;101154.31;;;18.04;30.75
43257;BME280;28860;43.212;27.934;2023-02-19T06:25:41;101159.41;;;18.18;30.96
43257;BME280;28860;43.212;27.934;2023-02-19T06:28:06;101167.22;;;18.33;30.71
43257;BME280;28860;43.212;27.934;2023-02-19T06:30:35;101169.34;;;18.50;30.54
43257;BME280;28860;43.212;27.934;2023-02-19T06:33:00;101177.28;;;18.42;30.81
43257;BME280;28860;43.212;27.934;2023-02-19T06:35:26;101172.59;;;18.44;30.71
43257;BME280;28860;43.212;27.934;2023-02-19T06:37:52;101164.56;;;18.64;30.46
43257;BME280;28860;43.212;27.934;2023-02-19T06:40:17;101148.56;;;18.18;31.11
43257;BME280;28860;43.212;27.934;2023-02-19T06:42:43;101144.38;;;18.35;31.23
43257;BME280;28860;43.212;27.934;2023-02-19T06:45:08;101150.34;;;18.50;30.79
43257;BME280;28860;43.212;27.934;2023-02-19T06:47:34;101144.19;;;18.48;30.99
43257;BME280;28860;43.212;27.934;2023-02-19T06:49:59;101145.63;;;18.52;31.12
43257;BME280;28860;43.212;27.934;2023-02-19T06:52:28;101162.41;;;18.36;31.27
43257;BME280;28860;43.212;27.934;2023-02-19T06:54:53;101167.50;;;18.30;31.23
43257;BME280;28860;43.212;27.934;2023-02-19T06:57:19;101195.38;;;18.32;31.56
43257;BME280;28860;43.212;27.934;2023-02-19T06:59:47;101208.41;;;18.38;31.37
43257;BME280;28860;43.212;27.934;2023-02-19T07:02:12;101166.34;;;18.32;31.72
43257;BME280;28860;43.212;27.934;2023-02-19T07:04:38;101173.44;;;18.45;31.44
43257;BME280;28860;43.212;27.934;2023-02-19T07:07:04;101159.44;;;18.71;31.00
43257;BME280;28860;43.212;27.934;2023-02-19T07:09:29;101159.75;;;18.46;31.62
43257;BME280;28860;43.212;27.934;2023-02-19T07:11:57;101164.91;;;18.28;32.18
43257;BME280;28860;43.212;27.934;2023-02-19T07:14:23;101156.84;;;18.69;31.48
43257;BME280;28860;43.212;27.934;2023-02-19T07:16:49;101161.75;;;18.75;31.43
43257;BME280;28860;43.212;27.934;2023-02-19T07:19:14;101161.13;;;18.62;31.42
43257;BME280;28860;43.212;27.934;2023-02-19T07:21:42;101180.78;;;18.75;31.33
43257;BME280;28860;43.212;27.934;2023-02-19T07:24:09;101190.38;;;18.79;31.28
43257;BME280;28860;43.212;27.934;2023-02-19T07:26:35;101184.47;;;18.95;31.33
43257;BME280;28860;43.212;27.934;2023-02-19T07:29:00;101166.84;;;18.59;31.83
43257;BME280;28860;43.212;27.934;2023-02-19T07:31:27;101189.31;;;18.92;31.23
43257;BME280;28860;43.212;27.934;2023-02-19T07:33:53;101164.44;;;18.97;31.23
43257;BME280;28860;43.212;27.934;2023-02-19T07:36:20;101184.13;;;19.10;30.82
43257;BME280;28860;43.212;27.934;2023-02-19T07:38:46;101179.53;;;19.11;30.94
43257;BME280;28860;43.212;27.934;2023-02-19T07:41:12;101179.41;;;19.12;30.88
43257;BME280;28860;43.212;27.934;2023-02-19T07:43:38;101201.31;;;19.20;30.60
43257;BME280;28860;43.212;27.934;2023-02-19T07:46:05;101192.09;;;19.02;30.97
43257;BME280;28860;43.212;27.934;2023-02-19T07:48:30;101209.03;;;18.94;30.78
43257;BME280;28860;43.212;27.934;2023-02-19T07:50:58;101203.34;;;18.97;30.73
43257;BME280;28860;43.212;27.934;2023-02-19T07:53:25;101200.03;;;18.72;31.06
43257;BME280;28860;43.212;27.934;2023-02-19T07:55:51;101196.97;;;18.87;31.28
43257;BME280;28860;43.212;27.934;2023-02-19T07:58:19;101185.78;;;19.32;30.46
43257;BME280;28860;43.212;27.934;2023-02-19T08:00:45;101174.22;;;19.09;30.56
43257;BME280;28860;43.212;27.934;2023-02-19T08:03:10;101166.56;;;19.24;30.52
43257;BME280;28860;43.212;27.934;2023-02-19T08:05:37;101166.28;;;19.27;30.40
43257;BME280;28860;43.212;27.934;2023-02-19T08:08:13;101144.81;;;19.24;30.79
43257;BME280;28860;43.212;27.934;2023-02-19T08:10:39;101146.47;;;19.05;30.88
43257;BME280;28860;43.212;27.934;2023-02-19T08:13:25;101162.50;;;19.08;30.88
43257;BME280;28860;43.212;27.934;2023-02-19T08:16:11;101153.41;;;19.29;30.51
43257;BME280;28860;43.212;27.934;2023-02-19T08:18:40;101153.69;;;19.26;30.78
43257;BME280;28860;43.212;27.934;2023-02-19T08:21:06;101157.72;;;19.42;30.26
43257;BME280;28860;43.212;27.934;2023-02-19T08:23:31;101140.28;;;19.54;30.47
43257;BME280;28860;43.212;27.934;2023-02-19T08:25:58;101135.13;;;19.51;30.24
43257;BME280;28860;43.212;27.934;2023-02-19T08:28:25;101143.41;;;19.40;30.52
43257;BME280;28860;43.212;27.934;2023-02-19T08:30:51;101141.06;;;19.15;31.11
43257;BME280;28860;43.212;27.934;2023-02-19T08:33:19;101132.53;;;19.59;30.20
43257;BME280;28860;43.212;27.934;2023-02-19T08:35:45;101133.94;;;19.44;30.87
43257;BME280;28860;43.212;27.934;2023-02-19T08:38:12;101142.72;;;19.57;30.67
43257;BME280;28860;43.212;27.934;2023-02-19T08:40:39;101138.97;;;19.48;30.56
43257;BME280;28860;43.212;27.934;2023-02-19T08:43:08;101137.97;;;19.49;30.73
43257;BME280;28860;43.212;27.934;2023-02-19T08:45:36;101136.56;;;19.75;30.42
43257;BME280;28860;43.212;27.934;2023-02-19T08:48:04;101115.94;;;19.82;30.24
43257;BME280;28860;43.212;27.934;2023-02-19T08:50:30;101132.31;;;19.92;30.04
43257;BME280;28860;43.212;27.934;2023-02-19T08:52:58;101129.72;;;19.90;30.30
43257;BME280;28860;43.212;27.934;2023-02-19T08:55:23;101145.59;;;19.85;30.65
43257;BME280;28860;43.212;27.934;2023-02-19T08:57:49;101132.75;;;20.07;30.26
43257;BME280;28860;43.212;27.934;2023-02-19T09:00:15;101133.41;;;19.89;30.80
43257;BME280;28860;43.212;27.934;2023-02-19T09:02:41;101132.31;;;19.92;30.48
43257;BME280;28860;43.212;27.934;2023-02-19T09:05:06;101121.69;;;19.79;30.71
43257;BME280;28860;43.212;27.934;2023-02-19T09:07:32;101123.13;;;20.03;30.52
43257;BME280;28860;43.212;27.934;2023-02-19T09:09:59;101120.53;;;19.91;30.77
43257;BME280;28860;43.212;27.934;2023-02-19T09:12:24;101109.03;;;20.37;30.02
43257;BME280;28860;43.212;27.934;2023-02-19T09:14:50;101122.50;;;20.29;30.15
43257;BME280;28860;43.212;27.934;2023-02-19T09:17:16;101144.47;;;20.17;30.65
43257;BME280;28860;43.212;27.934;2023-02-19T09:19:41;101130.81;;;20.37;30.06
43257;BME280;28860;43.212;27.934;2023-02-19T09:22:07;101125.03;;;20.50;30.12
43257;BME280;28860;43.212;27.934;2023-02-19T09:24:32;101140.72;;;20.38;30.28
43257;BME280;28860;43.212;27.934;2023-02-19T09:26:58;101145.44;;;20.36;30.02
43257;BME280;28860;43.212;27.934;2023-02-19T09:29:26;101134.19;;;20.59;29.97
43257;BME280;28860;43.212;27.934;2023-02-19T09:31:56;101163.47;;;20.47;30.16
43257;BME280;28860;43.212;27.934;2023-02-19T09:34:23;101154.84;;;20.61;29.76
43257;BME280;28860;43.212;27.934;2023-02-19T09:36:49;101167.59;;;20.81;29.71
43257;BME280;28860;43.212;27.934;2023-02-19T09:39:15;101142.13;;;20.90;29.48
43257;BME280;28860;43.212;27.934;2023-02-19T09:41:49;101156.78;;;20.89;29.61
43257;BME280;28860;43.212;27.934;2023-02-19T09:46:50;101147.91;;;20.87;29.73
43257;BME280;28860;43.212;27.934;2023-02-19T09:52:00;101147.91;;;20.87;29.72
43257;BME280;28860;43.212;27.934;2023-02-19T09:54:30;101134.09;;;20.78;29.69
43257;BME280;28860;43.212;27.934;2023-02-19T09:56:59;101138.84;;;20.76;30.02
43257;BME280;28860;43.212;27.934;2023-02-19T09:59:28;101121.72;;;21.22;29.56
43257;BME280;28860;43.212;27.934;2023-02-19T10:02:04;101107.66;;;20.99;29.65
43257;BME280;28860;43.212;27.934;2023-02-19T10:04:38;101116.00;;;21.43;29.03
43257;BME280;28860;43.212;27.934;2023-02-19T10:07:10;101122.81;;;21.57;28.93
43257;BME280;28860;43.212;27.934;2023-02-19T10:09:37;101114.09;;;21.72;28.65
43257;BME280;28860;43.212;27.934;2023-02-19T10:21:54;101090.00;;;21.21;28.97
43257;BME280;28860;43.212;27.934;2023-02-19T10:24:25;101063.69;;;21.48;28.43
43257;BME280;28860;43.212;27.934;2023-02-19T10:26:52;101067.38;;;21.75;28.19
43257;BME280;28860;43.212;27.934;2023-02-19T10:29:18;101074.38;;;21.59;28.50
43257;BME280;28860;43.212;27.934;2023-02-19T10:31:46;101078.72;;;21.52;28.48
43257;BME280;28860;43.212;27.934;2023-02-19T10:34:20;101066.28;;;21.49;28.61
43257;BME280;28860;43.212;27.934;2023-02-19T10:36:49;101060.50;;;21.53;28.78
43257;BME280;28860;43.212;27.934;2023-02-19T10:41:50;101058.38;;;21.64;28.12
43257;BME280;28860;43.212;27.934;2023-02-19T10:44:27;101073.94;;;21.82;28.17
43257;BME280;28860;43.212;27.934;2023-02-19T10:46:57;101063.38;;;21.87;28.23
43257;BME280;28860;43.212;27.934;2023-02-19T10:49:31;101069.63;;;21.25;28.91
43257;BME280;28860;43.212;27.934;2023-02-19T10:52:11;101084.72;;;21.38;28.72
43257;BME280;28860;43.212;27.934;2023-02-19T10:54:43;101062.69;;;21.49;28.64
43257;BME280;28860;43.212;27.934;2023-02-19T10:59:54;101054.13;;;21.62;28.61
43257;BME280;28860;43.212;27.934;2023-02-19T11:02:23;101042.00;;;21.64;28.43
43257;BME280;28860;43.212;27.934;2023-02-19T11:07:54;101042.94;;;21.91;28.18
43257;BME280;28860;43.212;27.934;2023-02-19T11:10:29;101037.03;;;21.78;27.91
43257;BME280;28860;43.212;27.934;2023-02-19T11:13:01;101043.31;;;21.97;27.80
43257;BME280;28860;43.212;27.934;2023-02-19T11:15:32;101022.59;;;22.12;27.45
43257;BME280;28860;43.212;27.934;2023-02-19T11:18:04;101020.28;;;21.99;27.92
43257;BME280;28860;43.212;27.934;2023-02-19T11:20:32;101022.59;;;22.12;27.84
43257;BME280;28860;43.212;27.934;2023-02-19T11:23:00;101019.78;;;22.30;27.36
43257;BME280;28860;43.212;27.934;2023-02-19T11:25:30;101017.41;;;22.62;27.06
43257;BME280;28860;43.212;27.934;2023-02-19T11:32:55;101000.34;;;22.68;27.30
43257;BME280;28860;43.212;27.934;2023-02-19T11:35:22;101011.00;;;22.88;27.04
43257;BME280;28860;43.212;27.934;2023-02-19T11:37:59;101016.47;;;22.88;27.07
43257;BME280;28860;43.212;27.934;2023-02-19T11:40:44;101022.78;;;22.80;27.60
43257;BME280;28860;43.212;27.934;2023-02-19T11:43:31;101019.13;;;22.63;27.35
43257;BME280;28860;43.212;27.934;2023-02-19T11:51:18;101014.81;;;23.03;27.15
43257;BME280;28860;43.212;27.934;2023-02-19T11:53:55;101009.41;;;23.37;26.35
43257;BME280;28860;43.212;27.934;2023-02-19T11:56:31;101005.22;;;23.08;26.75
43257;BME280;28860;43.212;27.934;2023-02-19T11:59:27;101006.56;;;22.87;27.16
43257;BME280;28860;43.212;27.934;2023-02-19T12:02:23;100975.66;;;23.19;26.44
43257;BME280;28860;43.212;27.934;2023-02-19T12:05:23;100973.41;;;22.98;26.85
43257;BME280;28860;43.212;27.934;2023-02-19T12:08:08;100981.63;;;23.07;26.35
43257;BME280;28860;43.212;27.934;2023-02-19T12:11:09;100971.06;;;23.20;26.55
43257;BME280;28860;43.212;27.934;2023-02-19T12:35:43;100954.25;;;22.82;26.33
43257;BME280;28860;43.212;27.934;2023-02-19T12:38:21;100957.63;;;22.59;26.60
43257;BME280;28860;43.212;27.934;2023-02-19T12:43:28;100950.16;;;22.34;27.25
43257;BME280;28860;43.212;27.934;2023-02-19T12:46:00;100961.69;;;22.55;27.12
43257;BME280;28860;43.212;27.934;2023-02-19T12:48:41;100966.31;;;22.62;27.11
43257;BME280;28860;43.212;27.934;2023-02-19T12:57:09;100950.13;;;22.78;26.64
43257;BME280;28860;43.212;27.934;2023-02-19T13:02:32;100927.56;;;22.67;26.74
43257;BME280;28860;43.212;27.934;2023-02-19T13:05:24;100938.09;;;22.54;27.10
43257;BME280;28860;43.212;27.934;2023-02-19T13:08:02;100932.75;;;22.87;26.86
43257;BME280;28860;43.212;27.934;2023-02-19T13:11:18;100930.63;;;22.56;27.06
43257;BME280;28860;43.212;27.934;2023-02-19T13:13:30;100914.06;;;22.23;27.42
43257;BME280;28860;43.212;27.934;2023-02-19T13:16:06;100926.13;;;22.46;27.17
43257;BME280;28860;43.212;27.934;2023-02-19T13:18:53;100928.22;;;22.18;27.81
43257;BME280;28860;43.212;27.934;2023-02-19T13:21:21;100926.13;;;22.46;27.21
43257;BME280;28860;43.212;27.934;2023-02-19T13:24:11;100931.88;;;22.35;27.95
43257;BME280;28860;43.212;27.934;2023-02-19T13:35:06;100914.09;;;22.82;26.58
43257;BME280;28860;43.212;27.934;2023-02-19T13:37:40;100901.63;;;22.88;26.64
43257;BME280;28860;43.212;27.934;2023-02-19T13:40:25;100909.13;;;22.78;26.48
43257;BME280;28860;43.212;27.934;2023-02-19T13:42:59;100901.56;;;22.55;26.68
43257;BME280;28860;43.212;27.934;2023-02-19T13:45:36;100906.75;;;23.08;26.40
43257;BME280;28860;43.212;27.934;2023-02-19T13:50:49;100890.69;;;22.71;26.70
43257;BME280;28860;43.212;27.934;2023-02-19T14:27:48;100865.41;;;23.02;26.97
43257;BME280;28860;43.212;27.934;2023-02-19T14:30:16;100870.03;;;23.10;27.14
43257;BME280;28860;43.212;27.934;2023-02-19T14:32:42;100873.91;;;22.58;27.36
43257;BME280;28860;43.212;27.934;2023-02-19T14:35:19;100868.44;;;22.66;27.16
43257;BME280;28860;43.212;27.934;2023-02-19T14:37:45;100869.84;;;22.79;26.88
43257;BME280;28860;43.212;27.934;2023-02-19T14:40:35;100880.25;;;22.67;27.21
43257;BME280;28860;43.212;27.934;2023-02-19T14:43:03;100861.94;;;22.67;27.01
43257;BME280;28860;43.212;27.934;2023-02-19T14:45:36;100856.47;;;22.67;27.31
43257;BME280;28860;43.212;27.934;2023-02-19T14:48:04;100858.19;;;22.68;27.05
43257;BME280;28860;43.212;27.934;2023-02-19T14:50:31;100871.19;;;22.66;27.31
43257;BME280;28860;43.212;27.934;2023-02-19T14:53:00;100865.72;;;22.66;26.72
43257;BME280;28860;43.212;27.934;2023-02-19T14:55:31;100887.41;;;22.59;26.88
43257;BME280;28860;43.212;27.934;2023-02-19T14:58:07;100870.50;;;22.56;27.04
43257;BME280;28860;43.212;27.934;2023-02-19T15:00:38;100830.25;;;22.31;26.73
43257;BME280;28860;43.212;27.934;2023-02-19T15:03:06;100857.00;;;22.71;26.79
43257;BME280;28860;43.212;27.934;2023-02-19T15:05:57;100851.66;;;22.44;26.79
43257;BME280;28860;43.212;27.934;2023-02-19T15:08:30;100858.72;;;22.64;26.61
43257;BME280;28860;43.212;27.934;2023-02-19T15:10:56;100854.31;;;22.19;27.14
43257;BME280;28860;43.212;27.934;2023-02-19T15:13:27;100850.22;;;22.24;27.15